Al Udeid Air Base
OTBH : now visible

Airfield :











YOU CAN JOIN US ON...

 
LOGIN :

Register | Disclaimer

   EN    FR    IT 

 









Legend :    VFR   Marginal VFR   IFR   Intensive IFR   Very Intensive IFR
Visi :
Ceiling :
>= 8 km
>= 3000ft
5 to 8 km
1000 to 3000 ft
1500m to 5 km
500 to 1000 ft
800 to 1500m
200 to 500 ft
< 800m
< 200 ft
Symbols :   Thunderstorms  Fog  Heavy snow  Heavy precipitations  Wind > 20 kt






- Airport Elevation : 130 ft
- IATA code : IUD


OTBH - Al Udeid Air Base

CURRENT METAR :
  • 091756Z 13005KT 9999 CLR 36/24 A2943 RMK AO2A SLP966 T03590238 10449 20359 51004 $

EXPIRED METARs :
  • 091656Z 12003KT 9999 CLR 37/24 A2943 RMK AO2A SLP966 T03720236 $
  • 091556Z 12006KT 9999 CLR 38/25 A2943 RMK AO2A SLP966 T03820252 $

TAF TAF OTBH
Valid from the 09 at 16:00 until the 10 at 22:00 UTC


091530Z 0916/1022 VRB06KT 9999 SKC QNH2943INS
BECMG 1005/1006 31010G15KT 9999 SKC QNH2940INS TX46/1011Z TN28/1002Z
OBBB FIR / Asia



MET'MAP, your aeronautical weather chart ! - Copyright ORBIFLY December 2007 - Disclaimer

ORBIFLY MET'MAP TEAM :

Programming & Development : Alexandra Zaïnal
Concept & original design : Baudouin d'Aumeries
Assistance for programming : Marc-Olivier Méhu
Technical & hardware support : Manuel Goepfert

Contact : metmap@orbifly.com




SOURCES & CREDITS :

   NOAA       Earth
Advisory